Time;durP1;ratioP1;P1;durP2;ratioP2;P2;SDS_P1;SDS_P2;PMS_P1;PMS_P2;Temp;Humidity;BMP_temperature;BMP_pressure;BME280_temperature;BME280_humidity;BME280_pressure;Samples;Min_cycle;Max_cycle;Signal;HPM_P1;HPM_P2
2022/04/09 00:00:16;;;;;;;2.77;1.80;;;;;;;;;;5054162;28;20324;-83
2022/04/09 00:02:43;;;;;;;2.50;1.63;;;;;;;;;;5054250;28;20292;-82
2022/04/09 00:05:11;;;;;;;3.57;1.80;;;;;;;;;;5054467;28;20582;-83
2022/04/09 00:07:38;;;;;;;3.67;1.93;;;;;;;;;;5054371;28;20201;-83
2022/04/09 00:10:09;;;;;;;1.73;1.63;;;;;;;;;;5053999;28;20766;-83
2022/04/09 00:12:36;;;;;;;3.40;1.77;;;;;;;;;;5053365;28;20192;-82
2022/04/09 00:15:04;;;;;;;3.23;1.67;;;;;;;;;;5054261;28;20206;-83
2022/04/09 00:17:37;;;;;;;5.40;1.70;;;;;;;;;;5054101;28;20204;-82
2022/04/09 00:20:05;;;;;;;8.37;3.37;;;;;;;;;;5054144;28;20212;-83
2022/04/09 00:22:33;;;;;;;2.50;2.23;;;;;;;;;;5053966;28;20195;-82
2022/04/09 00:25:00;;;;;;;7.57;2.37;;;;;;;;;;5053537;28;20255;-83
2022/04/09 00:27:29;;;;;;;3.10;1.87;;;;;;;;;;5054215;28;20280;-83
2022/04/09 00:29:56;;;;;;;4.17;2.20;;;;;;;;;;5052161;28;20197;-83
2022/04/09 00:32:23;;;;;;;2.37;2.17;;;;;;;;;;5053778;28;20285;-82
2022/04/09 00:34:50;;;;;;;3.97;2.80;;;;;;;;;;5047306;28;20296;-83
2022/04/09 00:37:18;;;;;;;4.03;2.70;;;;;;;;;;5034308;28;20213;-83
2022/04/09 00:39:45;;;;;;;2.20;2.00;;;;;;;;;;5033638;28;20195;-82
2022/04/09 00:42:16;;;;;;;3.93;2.53;;;;;;;;;;5033658;28;20292;-83
2022/04/09 00:44:44;;;;;;;3.70;2.53;;;;;;;;;;5033745;28;20192;-82
2022/04/09 00:47:12;;;;;;;2.83;2.07;;;;;;;;;;5033522;28;20682;-82
2022/04/09 00:49:41;;;;;;;4.60;3.13;;;;;;;;;;5033720;28;20589;-83
2022/04/09 00:52:09;;;;;;;4.40;2.40;;;;;;;;;;5033668;28;20681;-82
2022/04/09 00:54:39;;;;;;;3.57;1.97;;;;;;;;;;5033369;28;20291;-82
2022/04/09 00:57:07;;;;;;;4.97;2.20;;;;;;;;;;5033250;28;20203;-82
2022/04/09 00:59:45;;;;;;;2.17;1.80;;;;;;;;;;5033166;28;20195;-82
2022/04/09 01:02:24;;;;;;;3.60;2.63;;;;;;;;;;5035041;28;20197;-82
2022/04/09 01:04:52;;;;;;;3.97;1.90;;;;;;;;;;5052997;28;20204;-79
2022/04/09 01:07:19;;;;;;;3.27;2.30;;;;;;;;;;5053043;28;20198;-82
2022/04/09 01:09:47;;;;;;;3.17;1.80;;;;;;;;;;5053141;28;20202;-82
2022/04/09 01:12:16;;;;;;;3.87;1.93;;;;;;;;;;5053015;28;20289;-82
2022/04/09 01:14:45;;;;;;;2.50;1.77;;;;;;;;;;5052850;28;20238;-82
2022/04/09 01:17:12;;;;;;;2.00;1.90;;;;;;;;;;5052730;28;20204;-82
2022/04/09 01:19:39;;;;;;;2.70;2.10;;;;;;;;;;5052915;28;20718;-82
2022/04/09 01:22:08;;;;;;;2.00;1.90;;;;;;;;;;5053133;28;20206;-82
2022/04/09 01:24:35;;;;;;;3.47;2.20;;;;;;;;;;5051606;28;20268;-82
2022/04/09 01:27:02;;;;;;;4.43;2.30;;;;;;;;;;5052784;28;20237;-82
2022/04/09 01:29:30;;;;;;;3.57;2.13;;;;;;;;;;5052662;28;20290;-82
2022/04/09 01:31:57;;;;;;;2.93;2.10;;;;;;;;;;5052694;28;20194;-83
2022/04/09 01:34:24;;;;;;;2.27;2.07;;;;;;;;;;5052557;28;20197;-83
2022/04/09 01:36:51;;;;;;;2.30;2.00;;;;;;;;;;5052411;28;20198;-82
2022/04/09 01:39:20;;;;;;;3.20;2.23;;;;;;;;;;5052248;28;20288;-82
2022/04/09 01:41:47;;;;;;;2.17;1.97;;;;;;;;;;5052422;28;20257;-83
2022/04/09 01:44:15;;;;;;;3.00;1.77;;;;;;;;;;5052689;28;20582;-82
2022/04/09 01:46:44;;;;;;;3.53;2.33;;;;;;;;;;5052508;28;20557;-82
2022/04/09 01:49:13;;;;;;;1.97;1.77;;;;;;;;;;5052628;28;20641;-82
2022/04/09 01:51:40;;;;;;;3.57;2.40;;;;;;;;;;5052082;28;20194;-82
2022/04/09 01:54:07;;;;;;;2.97;2.10;;;;;;;;;;5052473;28;20198;-82
2022/04/09 01:56:36;;;;;;;1.77;1.67;;;;;;;;;;5052250;28;20705;-82
2022/04/09 01:59:03;;;;;;;4.63;3.43;;;;;;;;;;5052310;28;20208;-82
2022/04/09 02:01:30;;;;;;;3.20;2.90;;;;;;;;;;5052224;28;20371;-82
2022/04/09 02:03:58;;;;;;;4.37;2.67;;;;;;;;;;5052016;28;20204;-82
2022/04/09 02:06:25;;;;;;;2.93;2.63;;;;;;;;;;5036817;28;20209;-82
2022/04/09 02:08:52;;;;;;;3.90;2.37;;;;;;;;;;5032271;28;20256;-82
2022/04/09 02:11:19;;;;;;;4.57;2.00;;;;;;;;;;5031876;28;20198;-83
2022/04/09 02:13:48;;;;;;;2.83;2.53;;;;;;;;;;5031688;28;20199;-80
2022/04/09 02:16:15;;;;;;;4.43;2.40;;;;;;;;;;5049509;28;20201;-82
2022/04/09 02:18:43;;;;;;;3.13;2.57;;;;;;;;;;5051535;28;20669;-81
2022/04/09 02:21:11;;;;;;;2.73;2.43;;;;;;;;;;5045063;28;20225;-82
2022/04/09 02:23:38;;;;;;;3.33;2.20;;;;;;;;;;5049993;28;20205;-81
2022/04/09 02:26:08;;;;;;;7.27;2.47;;;;;;;;;;5051832;28;20261;-82
2022/04/09 02:28:35;;;;;;;2.20;1.90;;;;;;;;;;5051887;28;20285;-82
2022/04/09 02:31:04;;;;;;;4.07;2.63;;;;;;;;;;5051383;28;20197;-81
2022/04/09 02:33:31;;;;;;;3.43;2.27;;;;;;;;;;5051555;28;20292;-82
2022/04/09 02:35:58;;;;;;;4.80;2.50;;;;;;;;;;5051209;28;20288;-83
2022/04/09 02:38:26;;;;;;;3.47;2.27;;;;;;;;;;5051903;28;20275;-83
2022/04/09 02:40:53;;;;;;;3.23;2.10;;;;;;;;;;5051205;28;20276;-82
2022/04/09 02:43:21;;;;;;;2.80;2.60;;;;;;;;;;5051458;28;20208;-82
2022/04/09 02:45:48;;;;;;;6.27;5.00;;;;;;;;;;5051622;28;20252;-82
2022/04/09 02:48:17;;;;;;;18.70;10.90;;;;;;;;;;5051525;28;20194;-83
2022/04/09 02:50:44;;;;;;;10.23;7.13;;;;;;;;;;5051107;28;20225;-83
2022/04/09 02:53:12;;;;;;;7.80;3.93;;;;;;;;;;5051379;28;20589;-83
2022/04/09 02:55:39;;;;;;;3.70;3.40;;;;;;;;;;5051206;28;20194;-82
2022/04/09 02:58:06;;;;;;;3.60;2.73;;;;;;;;;;5051652;28;20197;-83
2022/04/09 03:00:34;;;;;;;3.23;2.90;;;;;;;;;;5050824;28;20725;-83
2022/04/09 03:03:01;;;;;;;4.00;2.80;;;;;;;;;;5051227;28;20709;-84
2022/04/09 03:05:30;;;;;;;4.63;2.43;;;;;;;;;;5051139;28;20201;-83
2022/04/09 03:07:57;;;;;;;3.87;2.70;;;;;;;;;;5051566;28;20224;-83
2022/04/09 03:10:25;;;;;;;3.50;3.13;;;;;;;;;;5050514;28;20234;-82
2022/04/09 03:12:52;;;;;;;6.33;3.43;;;;;;;;;;5051385;28;20198;-83
2022/04/09 03:15:19;;;;;;;5.30;4.20;;;;;;;;;;5051116;28;20638;-83
2022/04/09 03:17:46;;;;;;;9.57;4.57;;;;;;;;;;5051162;28;20309;-82
2022/04/09 03:20:14;;;;;;;5.87;3.33;;;;;;;;;;5050887;28;20198;-83
2022/04/09 03:22:46;;;;;;;4.57;3.67;;;;;;;;;;5051351;28;20764;-83
2022/04/09 03:25:14;;;;;;;9.87;3.10;;;;;;;;;;5050726;28;20230;-83
2022/04/09 03:27:41;;;;;;;5.43;3.43;;;;;;;;;;5050870;28;20584;-83
2022/04/09 03:30:10;;;;;;;2.60;2.40;;;;;;;;;;5051208;28;20194;-84
2022/04/09 03:32:38;;;;;;;5.60;2.77;;;;;;;;;;5051075;28;20202;-83
2022/04/09 03:35:07;;;;;;;3.73;3.03;;;;;;;;;;5050537;28;20194;-83
2022/04/09 03:37:35;;;;;;;2.50;2.30;;;;;;;;;;5050954;28;20205;-82
2022/04/09 03:40:05;;;;;;;3.87;3.20;;;;;;;;;;5051204;28;20205;-86
2022/04/09 03:42:32;;;;;;;9.40;7.33;;;;;;;;;;5051158;28;20313;-83
2022/04/09 03:45:00;;;;;;;8.20;6.10;;;;;;;;;;5050597;28;20229;-85
2022/04/09 03:47:27;;;;;;;2.77;2.57;;;;;;;;;;5052660;28;20197;-85
2022/04/09 03:49:54;;;;;;;2.93;2.47;;;;;;;;;;5054738;28;20230;-84
2022/04/09 03:52:22;;;;;;;3.67;2.60;;;;;;;;;;5054210;28;20202;-84
2022/04/09 03:54:49;;;;;;;4.20;2.80;;;;;;;;;;5054252;28;20693;-85
2022/04/09 03:57:18;;;;;;;12.27;3.77;;;;;;;;;;5054375;28;20705;-84
2022/04/09 03:59:46;;;;;;;3.47;2.70;;;;;;;;;;5054481;28;20221;-84
2022/04/09 04:02:14;;;;;;;5.63;3.63;;;;;;;;;;5053970;28;20229;-84
2022/04/09 04:04:42;;;;;;;3.13;2.90;;;;;;;;;;5054340;28;20209;-83
2022/04/09 04:07:10;;;;;;;4.33;2.50;;;;;;;;;;5053984;28;20237;-84
2022/04/09 04:09:37;;;;;;;5.63;3.70;;;;;;;;;;5053855;28;20674;-84
2022/04/09 04:12:05;;;;;;;6.07;4.33;;;;;;;;;;5054050;28;20280;-83
2022/04/09 04:14:34;;;;;;;88.23;40.70;;;;;;;;;;5054314;28;20206;-84
2022/04/09 04:17:01;;;;;;;56.47;26.80;;;;;;;;;;5053782;28;20198;-83
2022/04/09 04:19:28;;;;;;;11.20;8.33;;;;;;;;;;5053637;28;20277;-83
2022/04/09 04:21:55;;;;;;;19.67;14.23;;;;;;;;;;5053889;28;20667;-83
2022/04/09 04:24:23;;;;;;;19.13;12.80;;;;;;;;;;5053637;28;20234;-83
2022/04/09 04:26:51;;;;;;;28.37;18.37;;;;;;;;;;5051885;28;20202;-84
2022/04/09 04:29:18;;;;;;;82.27;45.30;;;;;;;;;;5053358;28;20674;-84
2022/04/09 04:31:46;;;;;;;25.50;16.53;;;;;;;;;;5053902;28;20201;-84
2022/04/09 04:34:14;;;;;;;27.03;18.13;;;;;;;;;;5053899;28;20355;-83
2022/04/09 04:36:41;;;;;;;58.20;38.97;;;;;;;;;;5053319;28;20194;-84
2022/04/09 04:39:08;;;;;;;248.63;146.60;;;;;;;;;;5053921;28;20641;-83
2022/04/09 04:41:35;;;;;;;50.37;30.80;;;;;;;;;;5053258;28;20316;-83
2022/04/09 04:44:02;;;;;;;37.97;20.47;;;;;;;;;;5053447;28;20209;-83
2022/04/09 04:46:30;;;;;;;372.57;263.50;;;;;;;;;;5053689;28;20682;-83
2022/04/09 04:48:58;;;;;;;300.37;214.73;;;;;;;;;;5053126;28;20205;-83
2022/04/09 04:51:25;;;;;;;35.40;22.63;;;;;;;;;;5053804;28;20198;-84
2022/04/09 04:53:54;;;;;;;8.63;5.30;;;;;;;;;;5053267;28;20288;-84
2022/04/09 04:56:23;;;;;;;68.87;40.87;;;;;;;;;;5050817;28;20629;-84
2022/04/09 04:58:50;;;;;;;21.17;14.20;;;;;;;;;;5033298;28;20671;-84
2022/04/09 05:01:18;;;;;;;18.80;12.73;;;;;;;;;;5044909;28;20303;-85
2022/04/09 05:03:45;;;;;;;18.73;12.87;;;;;;;;;;5051680;28;20206;-85
2022/04/09 05:06:13;;;;;;;13.87;9.43;;;;;;;;;;5043712;28;20633;-84
2022/04/09 05:08:41;;;;;;;35.00;23.63;;;;;;;;;;5033037;28;20246;-83
2022/04/09 05:11:09;;;;;;;76.53;55.40;;;;;;;;;;5033124;28;20202;-84
2022/04/09 05:13:36;;;;;;;46.47;28.77;;;;;;;;;;5033122;28;20672;-83
2022/04/09 05:16:03;;;;;;;58.23;41.53;;;;;;;;;;5032950;28;20587;-84
2022/04/09 05:18:32;;;;;;;50.73;33.80;;;;;;;;;;5033046;28;20226;-83
2022/04/09 05:20:59;;;;;;;16.20;11.80;;;;;;;;;;5033017;28;20205;-84
2022/04/09 05:23:28;;;;;;;16.93;11.70;;;;;;;;;;5053174;28;20202;-83
2022/04/09 05:25:55;;;;;;;14.17;10.07;;;;;;;;;;5052467;28;20595;-81
2022/04/09 05:28:22;;;;;;;17.10;12.90;;;;;;;;;;5052745;28;20311;-81
2022/04/09 05:30:50;;;;;;;30.60;20.93;;;;;;;;;;5052645;28;20308;-82
2022/04/09 05:33:17;;;;;;;19.67;15.73;;;;;;;;;;5047340;28;20198;-81
2022/04/09 05:35:44;;;;;;;66.37;45.73;;;;;;;;;;5039951;28;20253;-81
2022/04/09 05:38:12;;;;;;;26.20;17.87;;;;;;;;;;5052759;28;20272;-82
2022/04/09 05:40:42;;;;;;;13.57;9.83;;;;;;;;;;5052358;28;20756;-82
2022/04/09 05:43:09;;;;;;;13.87;6.77;;;;;;;;;;5052698;28;20251;-82
2022/04/09 05:45:36;;;;;;;14.63;6.90;;;;;;;;;;5052155;28;20199;-82
2022/04/09 05:48:03;;;;;;;12.33;5.53;;;;;;;;;;5052995;28;20286;-82
2022/04/09 05:50:31;;;;;;;7.97;5.40;;;;;;;;;;5052609;28;20277;-81
2022/04/09 05:52:58;;;;;;;11.47;5.43;;;;;;;;;;5052103;28;20577;-82
2022/04/09 05:55:25;;;;;;;9.70;6.83;;;;;;;;;;5052160;28;20201;-82
2022/04/09 05:57:54;;;;;;;6.70;4.43;;;;;;;;;;5046230;28;20193;-82
2022/04/09 06:00:22;;;;;;;6.43;4.43;;;;;;;;;;5040680;28;20721;-82
2022/04/09 06:02:49;;;;;;;14.90;4.70;;;;;;;;;;5042611;28;20229;-82
2022/04/09 06:05:16;;;;;;;9.73;5.83;;;;;;;;;;5046306;28;20214;-77
2022/04/09 06:07:43;;;;;;;7.30;4.23;;;;;;;;;;5050815;28;20296;-76
2022/04/09 06:10:13;;;;;;;4.70;3.33;;;;;;;;;;5051440;28;20561;-76
2022/04/09 06:12:41;;;;;;;5.80;3.43;;;;;;;;;;5052192;28;20190;-76
2022/04/09 06:15:10;;;;;;;7.17;3.17;;;;;;;;;;5051963;28;20198;-77
2022/04/09 06:17:39;;;;;;;3.23;2.90;;;;;;;;;;5052132;28;20204;-76
2022/04/09 06:20:08;;;;;;;4.73;3.40;;;;;;;;;;5051705;28;20220;-76
2022/04/09 06:22:35;;;;;;;4.23;2.90;;;;;;;;;;5051628;28;20229;-77
2022/04/09 06:25:02;;;;;;;5.13;2.70;;;;;;;;;;5051545;28;20620;-76
2022/04/09 06:27:31;;;;;;;3.87;2.83;;;;;;;;;;5051680;28;20198;-76
2022/04/09 06:29:58;;;;;;;3.20;2.90;;;;;;;;;;5051534;28;20240;-77
2022/04/09 06:32:27;;;;;;;4.60;3.40;;;;;;;;;;5051483;28;20276;-77
2022/04/09 06:34:54;;;;;;;4.83;3.77;;;;;;;;;;5051368;28;20197;-76
2022/04/09 06:37:21;;;;;;;4.80;2.83;;;;;;;;;;5051898;28;20201;-77
2022/04/09 06:39:48;;;;;;;3.23;2.80;;;;;;;;;;5051739;28;20220;-77
2022/04/09 06:42:15;;;;;;;3.03;2.33;;;;;;;;;;5051276;28;20224;-76
2022/04/09 06:44:43;;;;;;;2.90;2.50;;;;;;;;;;5051380;28;20197;-76
2022/04/09 06:47:10;;;;;;;3.07;2.70;;;;;;;;;;5045248;28;20219;-76
2022/04/09 06:49:39;;;;;;;4.73;2.77;;;;;;;;;;5051211;28;20261;-76
2022/04/09 06:52:07;;;;;;;3.50;3.13;;;;;;;;;;5051212;28;20193;-77
2022/04/09 06:54:34;;;;;;;2.90;2.60;;;;;;;;;;5051553;28;20214;-76
2022/04/09 06:57:01;;;;;;;4.00;2.70;;;;;;;;;;5051776;28;20230;-76
2022/04/09 06:59:28;;;;;;;2.77;2.57;;;;;;;;;;5051508;28;20666;-76
2022/04/09 07:01:55;;;;;;;4.63;2.70;;;;;;;;;;5051147;28;20219;-77
2022/04/09 07:04:23;;;;;;;5.53;2.83;;;;;;;;;;5051177;28;20207;-76
2022/04/09 07:06:51;;;;;;;3.33;2.60;;;;;;;;;;5051422;28;20200;-77
2022/04/09 07:09:18;;;;;;;4.90;2.83;;;;;;;;;;5051174;28;20204;-77
2022/04/09 07:11:46;;;;;;;3.50;2.50;;;;;;;;;;5051310;28;20222;-77
2022/04/09 07:14:13;;;;;;;4.70;2.80;;;;;;;;;;5051392;28;20568;-77
2022/04/09 07:16:40;;;;;;;5.00;2.83;;;;;;;;;;5051186;28;20197;-77
2022/04/09 07:19:09;;;;;;;2.90;2.20;;;;;;;;;;5051006;28;20696;-77
2022/04/09 07:21:36;;;;;;;4.00;3.10;;;;;;;;;;5051628;28;20240;-76
2022/04/09 07:24:05;;;;;;;3.43;2.73;;;;;;;;;;5054645;28;20243;-76
2022/04/09 07:26:33;;;;;;;6.33;2.77;;;;;;;;;;5048786;28;20208;-77
2022/04/09 07:29:00;;;;;;;3.97;2.50;;;;;;;;;;5055134;28;20219;-77
2022/04/09 07:31:27;;;;;;;4.10;2.73;;;;;;;;;;5054785;28;20674;-77
2022/04/09 07:33:54;;;;;;;4.30;2.80;;;;;;;;;;5055044;28;20198;-77
2022/04/09 07:36:21;;;;;;;5.63;2.70;;;;;;;;;;5055112;28;20609;-77
2022/04/09 07:38:48;;;;;;;3.13;2.80;;;;;;;;;;5054608;28;20585;-77
2022/04/09 07:41:17;;;;;;;3.13;2.23;;;;;;;;;;5055047;28;20209;-77
2022/04/09 07:43:44;;;;;;;7.93;3.93;;;;;;;;;;5054247;28;20236;-77
2022/04/09 07:46:11;;;;;;;5.23;3.27;;;;;;;;;;5054658;28;20202;-77
2022/04/09 07:48:39;;;;;;;5.00;3.00;;;;;;;;;;5054889;28;20201;-78
2022/04/09 07:51:06;;;;;;;5.80;2.57;;;;;;;;;;5054547;28;20197;-77
2022/04/09 07:53:33;;;;;;;6.43;3.50;;;;;;;;;;5054231;28;20202;-77
2022/04/09 07:56:00;;;;;;;3.63;2.40;;;;;;;;;;5054279;28;20200;-77
2022/04/09 07:58:29;;;;;;;3.53;2.63;;;;;;;;;;5054542;28;20205;-77
2022/04/09 08:00:56;;;;;;;4.97;2.80;;;;;;;;;;5054052;28;20202;-77
2022/04/09 08:03:23;;;;;;;5.47;2.60;;;;;;;;;;5054513;28;20221;-77
2022/04/09 08:05:50;;;;;;;5.33;3.10;;;;;;;;;;5054447;28;20213;-77
2022/04/09 08:08:18;;;;;;;6.07;3.03;;;;;;;;;;5054536;28;20562;-77
2022/04/09 08:10:45;;;;;;;4.63;2.80;;;;;;;;;;5053956;28;20213;-77
2022/04/09 08:13:13;;;;;;;3.00;2.33;;;;;;;;;;5053965;28;20196;-77
2022/04/09 08:15:42;;;;;;;2.73;2.37;;;;;;;;;;5054319;28;20202;-77
2022/04/09 08:18:09;;;;;;;5.63;3.13;;;;;;;;;;5054075;28;20580;-77
2022/04/09 08:20:37;;;;;;;4.63;2.57;;;;;;;;;;5053625;28;20205;-77
2022/04/09 08:23:05;;;;;;;5.37;2.43;;;;;;;;;;5053871;28;20655;-77
2022/04/09 08:25:32;;;;;;;3.37;3.07;;;;;;;;;;5053419;28;20238;-78
2022/04/09 08:28:00;;;;;;;4.93;2.90;;;;;;;;;;5053562;28;20217;-77
2022/04/09 08:30:28;;;;;;;4.60;3.70;;;;;;;;;;5053716;28;20201;-77
2022/04/09 08:32:57;;;;;;;10.33;3.37;;;;;;;;;;5051490;28;20259;-78
2022/04/09 08:35:24;;;;;;;5.67;2.70;;;;;;;;;;5047255;28;20773;-77
2022/04/09 08:37:54;;;;;;;5.93;2.33;;;;;;;;;;5053887;28;20218;-77
2022/04/09 08:40:22;;;;;;;3.77;3.10;;;;;;;;;;5053583;28;20635;-77
2022/04/09 08:42:49;;;;;;;7.93;3.07;;;;;;;;;;5053488;28;20225;-77
2022/04/09 08:45:16;;;;;;;6.10;3.23;;;;;;;;;;5053352;28;20198;-77
2022/04/09 08:47:44;;;;;;;5.70;2.90;;;;;;;;;;5053418;28;20209;-77
2022/04/09 08:50:14;;;;;;;9.93;3.63;;;;;;;;;;5052879;28;20202;-77
2022/04/09 08:52:42;;;;;;;10.97;2.90;;;;;;;;;;5053119;28;20620;-77
2022/04/09 08:55:12;;;;;;;4.90;2.90;;;;;;;;;;5053272;28;20208;-77
2022/04/09 08:57:39;;;;;;;6.33;3.07;;;;;;;;;;5053290;28;20749;-78
2022/04/09 09:00:10;;;;;;;4.27;3.07;;;;;;;;;;5053193;28;20202;-77
2022/04/09 09:02:37;;;;;;;10.23;3.20;;;;;;;;;;5053235;28;20206;-77
2022/04/09 09:05:05;;;;;;;6.10;2.37;;;;;;;;;;5053208;28;20205;-78
2022/04/09 09:07:45;;;;;;;3.93;3.27;;;;;;;;;;5052896;28;20214;-79
2022/04/09 09:10:18;;;;;;;4.83;3.53;;;;;;;;;;5053335;28;20613;-78
2022/04/09 09:12:57;;;;;;;4.87;2.97;;;;;;;;;;5053149;28;20189;-78
2022/04/09 09:15:25;;;;;;;9.60;3.17;;;;;;;;;;5052862;28;20194;-77
2022/04/09 09:17:56;;;;;;;3.93;2.77;;;;;;;;;;5053158;28;20193;-78
2022/04/09 09:20:24;;;;;;;5.27;3.17;;;;;;;;;;5052844;28;20190;-78
2022/04/09 09:22:53;;;;;;;5.53;3.20;;;;;;;;;;5052789;28;20705;-78
2022/04/09 09:25:20;;;;;;;5.40;3.10;;;;;;;;;;5052405;28;20226;-79
2022/04/09 09:27:56;;;;;;;3.30;2.53;;;;;;;;;;5052512;28;20670;-78
2022/04/09 09:30:23;;;;;;;12.17;8.57;;;;;;;;;;5052455;28;20189;-78
2022/04/09 09:33:08;;;;;;;4.93;3.40;;;;;;;;;;5049942;28;20201;-79
2022/04/09 09:35:49;;;;;;;4.97;4.40;;;;;;;;;;5052569;28;20197;-79
2022/04/09 09:38:23;;;;;;;6.00;3.10;;;;;;;;;;5052220;28;20202;-79
2022/04/09 09:40:50;;;;;;;6.00;3.23;;;;;;;;;;5052140;28;20193;-79
2022/04/09 09:43:18;;;;;;;7.47;3.00;;;;;;;;;;5052112;28;20226;-79
2022/04/09 09:45:45;;;;;;;3.90;3.27;;;;;;;;;;5050918;28;20202;-79
2022/04/09 09:48:23;;;;;;;4.13;3.73;;;;;;;;;;5052520;28;20197;-79
2022/04/09 09:50:51;;;;;;;12.10;2.67;;;;;;;;;;5051861;28;20204;-79
2022/04/09 09:53:28;;;;;;;3.03;2.50;;;;;;;;;;5052166;28;20293;-79
2022/04/09 09:55:55;;;;;;;3.10;2.70;;;;;;;;;;5051488;28;20251;-79
2022/04/09 09:58:23;;;;;;;4.67;2.40;;;;;;;;;;5051910;28;20251;-79
2022/04/09 10:00:50;;;;;;;5.73;3.07;;;;;;;;;;5052066;28;20248;-79
2022/04/09 10:03:21;;;;;;;7.90;2.50;;;;;;;;;;5052444;28;20225;-78
2022/04/09 10:05:48;;;;;;;5.63;2.70;;;;;;;;;;5052494;28;20194;-79
2022/04/09 10:08:16;;;;;;;2.73;2.53;;;;;;;;;;5051573;28;20240;-79
2022/04/09 10:10:48;;;;;;;6.23;2.40;;;;;;;;;;5051557;28;20194;-79
2022/04/09 10:13:20;;;;;;;8.20;2.73;;;;;;;;;;5051879;28;20186;-79
2022/04/09 10:15:50;;;;;;;6.40;2.67;;;;;;;;;;5051681;28;20244;-79
2022/04/09 10:18:21;;;;;;;2.47;2.23;;;;;;;;;;5051540;28;20658;-79
2022/04/09 10:20:51;;;;;;;4.97;2.20;;;;;;;;;;5051420;28;20240;-78
2022/04/09 10:23:19;;;;;;;3.43;2.13;;;;;;;;;;5051837;28;20218;-79
2022/04/09 10:25:51;;;;;;;2.30;2.10;;;;;;;;;;5051348;28;20230;-79
2022/04/09 10:28:31;;;;;;;5.30;2.20;;;;;;;;;;5051446;28;20674;-78
2022/04/09 10:30:58;;;;;;;10.63;2.80;;;;;;;;;;5051377;28;20255;-79
2022/04/09 10:33:28;;;;;;;4.20;2.10;;;;;;;;;;5051528;28;20209;-79
2022/04/09 10:36:00;;;;;;;8.07;2.27;;;;;;;;;;5051378;28;20247;-79
2022/04/09 10:38:28;;;;;;;3.03;2.27;;;;;;;;;;5051515;28;20228;-79
2022/04/09 10:41:31;;;;;;;4.83;1.90;;;;;;;;;;5051710;28;20204;-79
2022/04/09 10:44:03;;;;;;;7.07;1.67;;;;;;;;;;5047686;28;20225;-79
2022/04/09 10:46:35;;;;;;;2.67;1.97;;;;;;;;;;5051557;28;20190;-79
2022/04/09 10:49:22;;;;;;;3.97;2.40;;;;;;;;;;5051190;28;20190;-79
2022/04/09 10:52:17;;;;;;;2.10;1.90;;;;;;;;;;5051433;28;20198;-79
2022/04/09 10:55:07;;;;;;;8.67;2.20;;;;;;;;;;5025337;28;20205;-79
2022/04/09 10:57:44;;;;;;;2.50;2.07;;;;;;;;;;5055247;28;20202;-79
2022/04/09 11:00:31;;;;;;;4.87;2.17;;;;;;;;;;5055102;28;20201;-79
2022/04/09 11:03:17;;;;;;;8.00;2.30;;;;;;;;;;5055359;28;20186;-79
2022/04/09 11:05:44;;;;;;;4.90;1.87;;;;;;;;;;5055499;28;20635;-79
2022/04/09 11:08:14;;;;;;;6.90;6.30;;;;;;;;;;5055231;28;20198;-79
2022/04/09 11:10:43;;;;;;;3.67;2.07;;;;;;;;;;5055280;28;20190;-79
2022/04/09 11:13:12;;;;;;;6.00;1.77;;;;;;;;;;5055672;28;20194;-79
2022/04/09 11:15:43;;;;;;;4.70;1.30;;;;;;;;;;5054169;28;20637;-78
2022/04/09 11:18:11;;;;;;;3.30;1.63;;;;;;;;;;5055395;28;20182;-79
2022/04/09 11:20:39;;;;;;;5.07;2.07;;;;;;;;;;5055021;28;20651;-79
2022/04/09 11:23:12;;;;;;;4.23;1.70;;;;;;;;;;5055125;28;20645;-79
2022/04/09 11:25:42;;;;;;;2.40;1.60;;;;;;;;;;5054776;28;20789;-79
2022/04/09 11:28:13;;;;;;;7.47;5.70;;;;;;;;;;5055323;28;20576;-79
2022/04/09 11:30:52;;;;;;;7.17;2.30;;;;;;;;;;5054714;28;20559;-79
2022/04/09 11:33:20;;;;;;;7.87;2.63;;;;;;;;;;5054765;28;20186;-79
2022/04/09 11:35:47;;;;;;;4.67;2.57;;;;;;;;;;5054619;28;20689;-79
2022/04/09 11:38:15;;;;;;;2.87;2.50;;;;;;;;;;5054994;28;20198;-79
2022/04/09 11:40:46;;;;;;;3.63;1.73;;;;;;;;;;5054841;28;20280;-79
2022/04/09 11:43:14;;;;;;;1.80;1.40;;;;;;;;;;5054569;28;20188;-79
2022/04/09 11:45:42;;;;;;;6.50;4.53;;;;;;;;;;5054857;28;20271;-79
2022/04/09 11:48:15;;;;;;;4.40;2.47;;;;;;;;;;5054437;28;20293;-79
2022/04/09 11:50:42;;;;;;;2.83;1.83;;;;;;;;;;5054381;28;20186;-79
2022/04/09 11:53:10;;;;;;;2.30;1.73;;;;;;;;;;5054477;28;20627;-79
2022/04/09 11:55:38;;;;;;;3.77;2.30;;;;;;;;;;5054685;28;20198;-79
2022/04/09 11:58:06;;;;;;;3.87;2.70;;;;;;;;;;5054423;28;20201;-79
2022/04/09 12:00:37;;;;;;;4.47;1.50;;;;;;;;;;5054395;28;20198;-79
2022/04/09 12:03:05;;;;;;;7.23;4.97;;;;;;;;;;5054776;28;20202;-79
2022/04/09 12:05:38;;;;;;;3.40;2.33;;;;;;;;;;5054238;28;20288;-79
2022/04/09 12:08:07;;;;;;;2.40;2.00;;;;;;;;;;5053600;28;20193;-79
2022/04/09 12:10:34;;;;;;;2.83;1.60;;;;;;;;;;5053860;28;20255;-79
2022/04/09 12:13:03;;;;;;;4.17;1.67;;;;;;;;;;5054332;28;20280;-79
2022/04/09 12:15:32;;;;;;;3.07;1.90;;;;;;;;;;5054067;28;20190;-79
2022/04/09 12:18:00;;;;;;;2.97;1.90;;;;;;;;;;5054205;28;20233;-79
2022/04/09 12:20:30;;;;;;;1.80;1.67;;;;;;;;;;5053989;28;20280;-79
2022/04/09 12:23:00;;;;;;;2.13;1.90;;;;;;;;;;5054135;28;20202;-79
2022/04/09 12:25:35;;;;;;;3.73;2.10;;;;;;;;;;5053617;28;20241;-79
2022/04/09 12:28:03;;;;;;;5.17;2.40;;;;;;;;;;5053962;28;20323;-79
2022/04/09 12:30:41;;;;;;;2.60;2.40;;;;;;;;;;5053473;28;20198;-79
2022/04/09 12:33:10;;;;;;;3.20;2.00;;;;;;;;;;5053916;28;20275;-79
2022/04/09 12:35:37;;;;;;;2.23;1.87;;;;;;;;;;5054005;28;20194;-79
2022/04/09 12:38:06;;;;;;;3.23;2.80;;;;;;;;;;5053559;28;20202;-79
2022/04/09 12:40:34;;;;;;;7.53;4.23;;;;;;;;;;5053481;28;20194;-80
2022/04/09 12:43:01;;;;;;;2.50;2.30;;;;;;;;;;5053555;28;20194;-79
2022/04/09 12:45:29;;;;;;;7.83;2.40;;;;;;;;;;5053396;28;20733;-79
2022/04/09 12:47:58;;;;;;;3.67;2.63;;;;;;;;;;5053216;28;20587;-79
2022/04/09 12:50:28;;;;;;;4.53;2.77;;;;;;;;;;5053292;28;20197;-79
2022/04/09 12:52:56;;;;;;;2.73;1.83;;;;;;;;;;5053853;28;20697;-79
2022/04/09 12:55:26;;;;;;;4.33;1.83;;;;;;;;;;5053335;28;20198;-78
2022/04/09 12:57:53;;;;;;;3.50;2.53;;;;;;;;;;5053691;28;20633;-79
2022/04/09 13:00:21;;;;;;;2.27;2.07;;;;;;;;;;5053168;28;20208;-78
2022/04/09 13:02:50;;;;;;;3.33;2.20;;;;;;;;;;5053477;28;20198;-79
2022/04/09 13:05:18;;;;;;;4.00;2.07;;;;;;;;;;5052997;28;20224;-78
2022/04/09 13:07:45;;;;;;;2.83;2.53;;;;;;;;;;5053269;28;20190;-79
2022/04/09 13:10:14;;;;;;;4.30;3.07;;;;;;;;;;5052886;28;20202;-79
2022/04/09 13:12:43;;;;;;;7.57;2.13;;;;;;;;;;5053132;28;20698;-78
2022/04/09 13:15:12;;;;;;;3.03;2.00;;;;;;;;;;5052474;28;20252;-79
2022/04/09 13:17:39;;;;;;;4.73;2.13;;;;;;;;;;5053230;28;20206;-78
2022/04/09 13:20:09;;;;;;;3.60;2.03;;;;;;;;;;5052807;28;20201;-79
2022/04/09 13:22:36;;;;;;;2.47;1.90;;;;;;;;;;5052908;28;20674;-79
2022/04/09 13:25:05;;;;;;;3.33;2.17;;;;;;;;;;5052102;28;20729;-78
2022/04/09 13:27:32;;;;;;;2.33;1.60;;;;;;;;;;5052901;28;20255;-79
2022/04/09 13:30:00;;;;;;;6.30;1.80;;;;;;;;;;5052847;28;20625;-79
2022/04/09 13:32:29;;;;;;;5.23;2.07;;;;;;;;;;5052833;28;20209;-79
2022/04/09 13:34:56;;;;;;;2.77;2.00;;;;;;;;;;5052519;28;20198;-79
2022/04/09 13:37:23;;;;;;;2.17;1.93;;;;;;;;;;5052429;28;20205;-79
2022/04/09 13:39:51;;;;;;;4.20;1.63;;;;;;;;;;5052429;28;20680;-79
2022/04/09 13:42:18;;;;;;;2.00;1.80;;;;;;;;;;5052934;28;20563;-79
2022/04/09 13:44:45;;;;;;;3.23;1.70;;;;;;;;;;5052406;28;20628;-79
2022/04/09 13:47:14;;;;;;;2.93;2.57;;;;;;;;;;5052711;28;20198;-79
2022/04/09 13:49:41;;;;;;;4.90;3.27;;;;;;;;;;5052295;28;20194;-79
2022/04/09 13:52:10;;;;;;;2.73;2.40;;;;;;;;;;5052107;28;20198;-79
2022/04/09 13:54:37;;;;;;;4.27;2.37;;;;;;;;;;5052162;28;20202;-79
2022/04/09 13:57:05;;;;;;;6.33;2.10;;;;;;;;;;5051731;28;20190;-79
2022/04/09 13:59:32;;;;;;;3.37;2.03;;;;;;;;;;5051133;28;20205;-79
2022/04/09 14:01:59;;;;;;;4.23;2.10;;;;;;;;;;5051984;28;20194;-79
2022/04/09 14:04:28;;;;;;;3.17;2.23;;;;;;;;;;5052184;28;20264;-79
2022/04/09 14:06:55;;;;;;;3.17;2.50;;;;;;;;;;5052189;28;20198;-79
2022/04/09 14:09:22;;;;;;;3.53;2.30;;;;;;;;;;5051867;28;20198;-79
2022/04/09 14:11:50;;;;;;;4.67;2.47;;;;;;;;;;5051911;28;20579;-78
2022/04/09 14:14:17;;;;;;;10.80;2.27;;;;;;;;;;5051920;28;20417;-79
2022/04/09 14:16:44;;;;;;;2.20;1.80;;;;;;;;;;5052043;28;20202;-78
2022/04/09 14:19:11;;;;;;;2.30;1.77;;;;;;;;;;5052075;28;20252;-78
2022/04/09 14:21:40;;;;;;;3.13;1.77;;;;;;;;;;5051677;28;20247;-78
2022/04/09 14:24:08;;;;;;;2.57;1.50;;;;;;;;;;5051495;28;20234;-78
2022/04/09 14:26:35;;;;;;;4.40;1.97;;;;;;;;;;5052162;28;20634;-78
2022/04/09 14:29:03;;;;;;;3.40;2.17;;;;;;;;;;5051997;28;20197;-79
2022/04/09 14:31:33;;;;;;;22.87;2.87;;;;;;;;;;5051175;28;20225;-78
2022/04/09 14:34:00;;;;;;;3.50;2.57;;;;;;;;;;5051393;28;20202;-79
2022/04/09 14:36:28;;;;;;;2.10;1.90;;;;;;;;;;5051700;28;20565;-79
2022/04/09 14:38:57;;;;;;;6.23;2.67;;;;;;;;;;5051714;28;20197;-77
2022/04/09 14:41:24;;;;;;;3.67;2.00;;;;;;;;;;5051719;28;20190;-79
2022/04/09 14:43:53;;;;;;;5.00;1.93;;;;;;;;;;5051562;28;20198;-78
2022/04/09 14:46:21;;;;;;;7.53;2.47;;;;;;;;;;5051554;28;20336;-79
2022/04/09 14:48:48;;;;;;;5.27;2.30;;;;;;;;;;5051295;28;20297;-78